Time;durP1;ratioP1;P1;durP2;ratioP2;P2;SDS_P1;SDS_P2;PMS_P1;PMS_P2;Temp;Humidity;BMP_temperature;BMP_pressure;BME280_temperature;BME280_humidity;BME280_pressure;Samples;Min_cycle;Max_cycle;Signal;HPM_P1;HPM_P2
2023/06/22 00:01:48;;;;;;;;;9.25;9.25;;;;;22.33;69.67;100790.38;5057184;28;47311;-67
2023/06/22 00:04:14;;;;;;;;;8.25;8.25;;;;;22.31;70.24;100797.69;5056364;28;60554;-72
2023/06/22 00:06:39;;;;;;;;;7.50;7.50;;;;;22.29;70.34;100793.44;5057217;28;45470;-68
2023/06/22 00:09:06;;;;;;;;;10.50;10.50;;;;;22.25;70.63;100790.16;5057215;28;45171;-68
2023/06/22 00:11:33;;;;;;;;;9.00;9.00;;;;;22.26;70.68;100799.88;5057416;28;45418;-65
2023/06/22 00:13:58;;;;;;;;;9.25;9.25;;;;;22.11;70.70;100780.66;5055719;28;46598;-67
2023/06/22 00:16:24;;;;;;;;;8.00;7.75;;;;;22.22;70.83;100798.44;5057038;28;45389;-68
2023/06/22 00:18:49;;;;;;;;;7.50;7.50;;;;;22.20;70.53;100796.91;5057177;28;45441;-67
2023/06/22 00:21:14;;;;;;;;;19.25;19.25;;;;;22.19;70.73;100796.03;5057252;28;45499;-69
2023/06/22 00:23:41;;;;;;;;;11.00;11.00;;;;;22.16;70.90;100782.91;5056306;28;46699;-68
2023/06/22 00:26:06;;;;;;;;;5.00;5.00;;;;;22.07;70.61;100775.66;5055860;28;45535;-70
2023/06/22 00:28:31;;;;;;;;;35.25;31.75;;;;;22.06;70.69;100772.16;5057487;28;45631;-68
2023/06/22 00:30:57;;;;;;;;;5.25;5.25;;;;;22.07;70.95;100770.31;5057102;28;45308;-64
2023/06/22 00:33:22;;;;;;;;;7.00;7.00;;;;;22.01;71.49;100764.50;5056822;28;49599;-67
2023/06/22 00:35:48;;;;;;;;;6.75;6.75;;;;;21.96;71.36;100758.69;5056380;28;45386;-70
2023/06/22 00:38:13;;;;;;;;;6.00;6.00;;;;;21.95;71.18;100751.66;5056570;28;45348;-67
2023/06/22 00:40:38;;;;;;;;;7.50;7.50;;;;;21.95;71.34;100753.50;5056893;28;45179;-66
2023/06/22 00:43:05;;;;;;;;;10.00;10.00;;;;;21.87;71.25;100749.66;5056679;28;46187;-70
2023/06/22 00:45:30;;;;;;;;;5.50;5.50;;;;;21.88;71.45;100759.38;5056081;28;45222;-64
2023/06/22 00:47:58;;;;;;;;;6.50;6.50;;;;;21.89;71.29;100757.53;5056235;28;45240;-65
2023/06/22 00:50:26;;;;;;;;;7.00;7.00;;;;;21.87;71.44;100746.09;5056669;28;45401;-64
2023/06/22 00:52:53;;;;;;;;;6.50;6.50;;;;;21.87;71.30;100741.59;5056315;28;46590;-70
2023/06/22 00:55:21;;;;;;;;;6.50;6.50;;;;;21.85;71.68;100751.59;5056455;28;45380;-71
2023/06/22 00:57:47;;;;;;;;;7.25;7.25;;;;;21.80;71.32;100739.56;5056504;28;45482;-72
2023/06/22 01:00:20;;;;;;;;;6.25;6.25;;;;;21.76;71.88;100740.81;5056758;28;45607;-70
2023/06/22 01:02:46;;;;;;;;;7.50;7.50;;;;;21.73;71.98;100742.78;5071711;28;47270;-71
2023/06/22 01:05:15;;;;;;;;;7.00;7.00;;;;;21.67;72.26;100734.41;5054849;28;45342;-69
2023/06/22 01:07:51;;;;;;;;;6.75;6.75;;;;;21.66;72.01;100738.06;5056515;28;45463;-70
2023/06/22 01:10:43;;;;;;;;;5.50;5.50;;;;;21.65;71.83;100736.38;5056726;28;45249;-71
2023/06/22 01:13:22;;;;;;;;;7.75;7.75;;;;;21.64;72.55;100737.34;5056260;28;46148;-72
2023/06/22 01:15:56;;;;;;;;;5.00;5.00;;;;;21.57;72.19;100727.13;5056112;28;45497;-69
2023/06/22 01:18:25;;;;;;;;;4.25;4.25;;;;;21.55;72.28;100726.41;5054540;28;45284;-66
2023/06/22 01:20:55;;;;;;;;;5.25;5.25;;;;;21.52;72.48;100724.00;5056435;28;45255;-66
2023/06/22 01:23:20;;;;;;;;;7.25;7.25;;;;;21.50;72.34;100711.75;5055949;28;47466;-65
2023/06/22 01:26:23;;;;;;;;;5.75;5.75;;;;;21.46;72.70;100711.13;5055954;28;49752;-68
2023/06/22 01:28:55;;;;;;;;;6.25;6.25;;;;;21.44;72.74;100708.59;5056169;28;45389;-68
2023/06/22 01:31:26;;;;;;;;;6.00;6.00;;;;;21.43;72.42;100711.41;5056403;28;45349;-68
2023/06/22 01:34:01;;;;;;;;;7.50;7.50;;;;;21.37;72.66;100701.22;5055774;28;48692;-68
2023/06/22 01:36:27;;;;;;;;;6.00;6.00;;;;;21.36;72.54;100703.06;5055903;28;45270;-67
2023/06/22 01:38:53;;;;;;;;;6.75;6.75;;;;;21.22;72.44;100684.63;5057298;28;45333;-71
2023/06/22 01:41:20;;;;;;;;;7.25;7.25;;;;;21.28;72.55;100692.16;5056108;28;45358;-65
2023/06/22 01:43:47;;;;;;;;;6.50;6.50;;;;;21.33;72.53;100687.25;5055468;28;46670;-67
2023/06/22 01:46:14;;;;;;;;;6.50;6.50;;;;;21.35;72.01;100682.63;5055858;28;45409;-69
2023/06/22 01:48:40;;;;;;;;;4.75;4.75;;;;;21.42;72.02;100691.84;5055833;28;45323;-65
2023/06/22 01:51:06;;;;;;;;;6.00;6.00;;;;;21.37;71.74;100680.66;5054618;28;45526;-67
2023/06/22 01:53:31;;;;;;;;;4.50;4.50;;;;;21.40;71.58;100682.22;5055274;28;45301;-65
2023/06/22 01:55:57;;;;;;;;;5.00;5.00;;;;;21.44;72.09;100687.19;5055702;28;45242;-67
2023/06/22 01:58:26;;;;;;;;;5.25;5.25;;;;;21.46;71.89;100681.69;5055893;28;45318;-70
2023/06/22 02:01:10;;;;;;;;;4.75;4.75;;;;;21.49;71.62;100683.28;5055764;28;45461;-69
2023/06/22 02:03:42;;;;;;;;;6.50;6.50;;;;;21.49;71.27;100689.47;5055709;28;46834;-68
2023/06/22 02:06:16;;;;;;;;;6.00;6.00;;;;;21.50;71.63;100675.09;5055789;28;45221;-69
2023/06/22 02:08:48;;;;;;;;;7.00;7.00;;;;;21.45;71.22;100672.84;5055496;28;45357;-70
2023/06/22 02:11:16;;;;;;;;;6.75;6.75;;;;;21.44;71.35;100670.28;5055157;28;45533;-70
2023/06/22 02:13:43;;;;;;;;;5.50;5.50;;;;;21.45;71.24;100674.66;5055070;28;45367;-67
2023/06/22 02:16:13;;;;;;;;;11.25;11.25;;;;;21.43;71.34;100680.16;5070800;28;45437;-67
2023/06/22 02:18:40;;;;;;;;;8.25;8.25;;;;;21.39;71.16;100678.72;5055508;28;45511;-68
2023/06/22 02:21:05;;;;;;;;;6.00;6.00;;;;;21.44;71.50;100686.34;5055631;28;45415;-66
2023/06/22 02:23:32;;;;;;;;;6.00;6.00;;;;;21.40;71.29;100680.41;5055238;28;46329;-69
2023/06/22 02:25:58;;;;;;;;;5.75;5.75;;;;;21.37;70.99;100675.31;5055339;28;45359;-67
2023/06/22 02:28:23;;;;;;;;;6.00;6.00;;;;;21.34;71.10;100680.94;5055320;28;45374;-66
2023/06/22 02:30:49;;;;;;;;;7.00;7.00;;;;;21.37;71.36;100683.34;5055501;28;45594;-65
2023/06/22 02:33:14;;;;;;;;;7.00;7.00;;;;;21.37;71.39;100675.31;5054914;28;46023;-66
2023/06/22 02:35:39;;;;;;;;;6.25;6.25;;;;;21.36;71.19;100670.94;5055071;28;55913;-68
2023/06/22 02:38:05;;;;;;;;;5.25;5.25;;;;;21.25;71.32;100654.97;5055263;28;45258;-67
2023/06/22 02:40:31;;;;;;;;;6.00;6.00;;;;;21.31;70.97;100675.84;5055439;28;45204;-70
2023/06/22 02:43:01;;;;;;;;;5.50;5.50;;;;;21.30;71.26;100669.63;5055077;28;45674;-65
2023/06/22 02:45:27;;;;;;;;;6.50;6.50;;;;;21.25;71.43;100665.66;5055030;28;45366;-69
2023/06/22 02:47:52;;;;;;;;;6.75;6.75;;;;;21.24;71.25;100655.94;5055024;28;45364;-66
2023/06/22 02:50:18;;;;;;;;;7.00;7.00;;;;;21.22;71.48;100666.75;5055402;28;45268;-68
2023/06/22 02:52:43;;;;;;;;;6.00;6.00;;;;;21.22;71.24;100671.25;5054968;28;46244;-66
2023/06/22 02:55:08;;;;;;;;;6.75;6.75;;;;;21.21;71.61;100675.75;5055410;28;45261;-65
2023/06/22 02:57:34;;;;;;;;;9.75;9.00;;;;;21.20;71.40;100678.53;5055201;28;45374;-71
2023/06/22 03:00:00;;;;;;;;;7.00;7.00;;;;;21.21;71.45;100681.09;5055278;28;45492;-71
2023/06/22 03:02:26;;;;;;;;;6.50;6.50;;;;;21.22;71.28;100681.97;5054684;28;45740;-70
2023/06/22 03:04:53;;;;;;;;;8.00;8.00;;;;;21.23;71.64;100675.63;5054498;28;45402;-71
2023/06/22 03:07:20;;;;;;;;;8.50;8.50;;;;;21.23;71.25;100673.78;5054320;28;45390;-69
2023/06/22 03:09:45;;;;;;;;;7.75;7.75;;;;;21.21;71.49;100665.06;5054951;28;45610;-69
2023/06/22 03:12:11;;;;;;;;;6.00;6.00;;;;;21.17;71.04;100656.41;5070083;27;45910;-65
2023/06/22 03:14:36;;;;;;;;;5.25;5.25;;;;;21.16;70.99;100644.03;5052925;28;45244;-67
2023/06/22 03:17:03;;;;;;;;;7.00;6.25;;;;;21.18;70.83;100633.22;5054646;28;45280;-67
2023/06/22 03:19:31;;;;;;;;;7.25;7.25;;;;;21.21;70.95;100635.63;5054640;28;45489;-70
2023/06/22 03:21:56;;;;;;;;;5.25;5.25;;;;;21.19;70.81;100634.03;5054231;28;46071;-71
2023/06/22 03:24:22;;;;;;;;;7.50;7.50;;;;;21.16;70.82;100624.47;5054242;28;45503;-72
2023/06/22 03:26:47;;;;;;;;;5.75;5.75;;;;;21.19;71.13;100626.03;5054191;28;45533;-69
2023/06/22 03:29:12;;;;;;;;;6.25;6.25;;;;;21.13;71.22;100622.88;5054255;28;54340;-71
2023/06/22 03:31:38;;;;;;;;;7.00;7.00;;;;;21.10;71.55;100635.69;5054358;28;45366;-71
2023/06/22 03:34:03;;;;;;;;;6.25;6.25;;;;;21.09;71.35;100632.16;5053804;28;55889;-75
2023/06/22 03:36:28;;;;;;;;;5.50;5.50;;;;;21.10;71.39;100630.34;5052835;28;45342;-71
2023/06/22 03:38:53;;;;;;;;;6.75;6.75;;;;;21.04;70.96;100623.66;5054702;28;45354;-69
2023/06/22 03:41:19;;;;;;;;;6.00;6.00;;;;;21.09;71.71;100624.13;5054086;28;46641;-77
2023/06/22 03:43:44;;;;;;;;;9.25;9.25;;;;;21.07;71.63;100622.56;5054350;28;45388;-72
2023/06/22 03:46:09;;;;;;;;;7.50;7.50;;;;;20.98;72.05;100637.56;5054523;28;45302;-69
2023/06/22 03:48:35;;;;;;;;;7.00;7.00;;;;;20.93;72.21;100621.03;5054555;28;45398;-63
2023/06/22 03:51:02;;;;;;;;;8.50;8.50;;;;;20.89;72.09;100616.94;5052797;28;56133;-62
2023/06/22 03:53:28;;;;;;;;;6.75;6.75;;;;;20.78;72.41;100616.00;5052413;28;45208;-62
2023/06/22 03:55:53;;;;;;;;;11.50;11.50;;;;;20.68;73.11;100617.72;5054551;28;45391;-65
2023/06/22 03:58:20;;;;;;;;;8.75;8.75;;;;;20.58;73.50;100623.81;5072603;28;45641;-72
2023/06/22 04:00:50;;;;;;;;;9.25;9.25;;;;;20.48;74.07;100620.22;5071537;27;45433;-70
2023/06/22 04:03:16;;;;;;;;;7.75;7.75;;;;;20.42;74.28;100620.72;5061060;27;45406;-60
2023/06/22 04:05:41;;;;;;;;;7.00;7.00;;;;;20.37;75.00;100626.41;5062192;27;45613;-65
2023/06/22 04:08:07;;;;;;;;;6.25;6.00;;;;;20.29;74.98;100626.19;5074675;28;45334;-60
2023/06/22 04:10:33;;;;;;;;;7.25;7.25;;;;;20.22;75.70;100624.97;5073269;27;46393;-62
2023/06/22 04:13:00;;;;;;;;;7.00;7.00;;;;;20.21;75.88;100629.50;5074636;27;45287;-63
2023/06/22 04:15:25;;;;;;;;;8.00;8.00;;;;;20.16;75.85;100621.00;5056082;27;45379;-61
2023/06/22 04:17:50;;;;;;;;;9.25;9.25;;;;;20.14;75.92;100617.56;5054685;28;48038;-59
2023/06/22 04:20:15;;;;;;;;;8.25;8.25;;;;;20.18;76.94;100634.22;5069534;28;48053;-67
2023/06/22 04:22:41;;;;;;;;;9.00;9.00;;;;;20.17;77.31;100632.50;5076458;28;45331;-62
2023/06/22 04:25:10;;;;;;;;;7.75;7.25;;;;;20.15;78.01;100635.31;5067368;27;45355;-62
2023/06/22 04:27:39;;;;;;;;;9.00;9.00;;;;;20.12;78.69;100632.88;5078288;27;45592;-61
2023/06/22 04:30:06;;;;;;;;;7.25;7.25;;;;;20.09;79.75;100628.63;5069288;27;46295;-62
2023/06/22 04:32:32;;;;;;;;;9.50;9.50;;;;;19.99;80.18;100615.16;5074208;27;45466;-68
2023/06/22 04:34:57;;;;;;;;;6.25;6.25;;;;;20.00;81.19;100629.38;5076134;27;45365;-62
2023/06/22 04:37:23;;;;;;;;;9.50;9.50;;;;;19.96;82.75;100622.59;5078819;27;45426;-63
2023/06/22 04:39:49;;;;;;;;;9.50;9.50;;;;;19.95;83.39;100626.22;5062084;27;46274;-60
2023/06/22 04:42:14;;;;;;;;;9.75;9.75;;;;;19.93;83.96;100631.66;5073517;28;45490;-65
2023/06/22 04:44:41;;;;;;;;;10.25;10.25;;;;;19.86;85.26;100619.75;5073804;27;45426;-65
2023/06/22 04:47:08;;;;;;;;;9.75;9.75;;;;;19.89;85.71;100624.84;5056183;28;45249;-62
2023/06/22 04:49:37;;;;;;;;;8.50;7.75;;;;;19.83;86.27;100628.00;5066953;28;47399;-63
2023/06/22 04:52:10;;;;;;;;;12.00;12.00;;;;;19.80;86.56;100630.91;5077887;27;45414;-64
2023/06/22 04:54:38;;;;;;;;;6.75;6.75;;;;;19.73;87.77;100619.03;5076044;27;45386;-70
2023/06/22 04:57:10;;;;;;;;;11.00;11.00;;;;;19.76;88.15;100629.44;5077571;27;45463;-65
2023/06/22 04:59:38;;;;;;;;;11.00;11.00;;;;;19.72;89.08;100623.53;5062700;27;45473;-64
2023/06/22 05:02:05;;;;;;;;;10.50;9.75;;;;;19.68;90.58;100616.72;5056929;28;45489;-66
2023/06/22 05:04:32;;;;;;;;;11.75;11.25;;;;;19.66;90.60;100621.34;5055215;28;45986;-67
2023/06/22 05:06:58;;;;;;;;;13.00;13.00;;;;;19.61;90.67;100624.34;5054906;28;45549;-69
2023/06/22 05:09:27;;;;;;;;;12.75;12.75;;;;;19.63;91.35;100629.59;5068283;28;46155;-65
2023/06/22 05:11:52;;;;;;;;;10.00;10.00;;;;;19.58;93.04;100626.38;5046707;28;45504;-72
2023/06/22 05:14:18;;;;;;;;;10.00;10.00;;;;;19.55;93.99;100638.16;5077621;27;45344;-66
2023/06/22 05:16:44;;;;;;;;;13.25;13.25;;;;;19.48;95.40;100643.09;5072007;27;45356;-70
2023/06/22 05:19:10;;;;;;;;;12.50;12.50;;;;;19.48;96.56;100643.09;5057907;28;46088;-65
2023/06/22 05:21:36;;;;;;;;;12.50;12.50;;;;;19.46;96.18;100642.38;5073207;28;45608;-68
2023/06/22 05:24:02;;;;;;;;;13.75;13.75;;;;;19.39;97.64;100641.16;5069317;27;45424;-65
2023/06/22 05:26:29;;;;;;;;;12.00;12.00;;;;;19.34;98.48;100633.53;5074948;27;45179;-65
2023/06/22 05:28:54;;;;;;;;;15.50;15.50;;;;;19.27;98.65;100624.28;5069058;27;46463;-66
2023/06/22 05:31:20;;;;;;;;;15.25;15.00;;;;;19.24;100.00;100620.03;5071142;27;45460;-62
2023/06/22 05:33:47;;;;;;;;;15.25;15.25;;;;;19.16;100.00;100617.09;5073930;28;45264;-71
2023/06/22 05:36:13;;;;;;;;;15.75;15.75;;;;;19.12;100.00;100619.16;5071831;27;45637;-67
2023/06/22 05:38:39;;;;;;;;;15.75;15.75;;;;;19.10;100.00;100607.75;5056616;28;45463;-67
2023/06/22 05:41:04;;;;;;;;;17.25;17.25;;;;;19.05;100.00;100599.22;5056000;28;45510;-61
2023/06/22 05:43:30;;;;;;;;;14.50;14.50;;;;;19.04;100.00;100607.38;5057003;28;45493;-65
2023/06/22 05:45:56;;;;;;;;;18.50;18.00;;;;;19.02;100.00;100615.47;5055510;28;45465;-68
2023/06/22 05:48:21;;;;;;;;;17.75;17.75;;;;;18.98;100.00;100611.34;5057220;28;47450;-73
2023/06/22 05:50:47;;;;;;;;;17.50;17.50;;;;;18.94;100.00;100610.69;5055226;28;45314;-64
2023/06/22 05:53:12;;;;;;;;;27.50;26.75;;;;;18.90;100.00;100606.56;5055079;28;45413;-60
2023/06/22 05:55:37;;;;;;;;;20.50;20.50;;;;;18.84;100.00;100609.69;5066951;28;45644;-71
2023/06/22 05:58:05;;;;;;;;;18.25;18.25;;;;;18.81;100.00;100610.75;5076523;27;45414;-61
2023/06/22 06:00:31;;;;;;;;;19.00;19.00;;;;;18.80;100.00;100606.38;5075140;27;45174;-63
2023/06/22 06:02:56;;;;;;;;;21.50;21.50;;;;;18.73;100.00;100605.16;5058408;27;45738;-65
2023/06/22 06:05:23;;;;;;;;;25.25;25.25;;;;;18.68;100.00;100604.63;5056314;28;45324;-59
2023/06/22 06:07:49;;;;;;;;;22.75;21.25;;;;;18.62;100.00;100599.78;5056543;28;47391;-72
2023/06/22 06:10:15;;;;;;;;;25.00;25.00;;;;;18.59;100.00;100611.50;5056695;28;45443;-64
2023/06/22 06:12:40;;;;;;;;;22.00;22.00;;;;;18.48;100.00;100598.97;5056342;28;45383;-64
2023/06/22 06:15:06;;;;;;;;;25.00;25.00;;;;;18.44;100.00;100609.94;5056525;28;45326;-67
2023/06/22 06:17:32;;;;;;;;;23.50;23.50;;;;;18.35;100.00;100606.16;5056116;28;46001;-66
2023/06/22 06:20:00;;;;;;;;;23.50;23.50;;;;;18.31;100.00;100604.69;5056491;28;45484;-69
2023/06/22 06:22:25;;;;;;;;;24.75;24.75;;;;;18.24;100.00;100607.78;5073340;28;45334;-70
2023/06/22 06:24:51;;;;;;;;;29.25;27.50;;;;;18.17;100.00;100611.00;5076311;27;45664;-73
2023/06/22 06:27:18;;;;;;;;;29.25;29.00;;;;;18.15;100.00;100616.44;5057168;28;46265;-77
2023/06/22 06:29:45;;;;;;;;;34.00;31.75;;;;;18.13;100.00;100623.69;5055283;28;45382;-72
2023/06/22 06:32:11;;;;;;;;;31.25;30.25;;;;;18.09;100.00;100624.88;5054917;28;45516;-72
2023/06/22 06:34:36;;;;;;;;;29.25;29.25;;;;;18.07;100.00;100618.81;5052053;28;45549;-72
2023/06/22 06:37:01;;;;;;;;;26.75;26.75;;;;;18.05;100.00;100618.06;5056786;28;45429;-74
2023/06/22 06:39:27;;;;;;;;;33.00;32.00;;;;;18.04;100.00;100619.03;5053398;28;45539;-72
2023/06/22 06:41:52;;;;;;;;;28.75;27.25;;;;;18.06;100.00;100619.78;5064262;27;45311;-74
2023/06/22 06:44:17;;;;;;;;;30.00;29.75;;;;;18.04;100.00;100613.72;5053982;28;45500;-79
2023/06/22 06:46:43;;;;;;;;;35.25;32.75;;;;;18.02;100.00;100616.47;5055541;27;46059;-77
2023/06/22 06:49:08;;;;;;;;;30.50;29.50;;;;;18.02;100.00;100611.13;5054313;28;45276;-74
2023/06/22 06:51:34;;;;;;;;;34.25;31.00;;;;;18.02;100.00;100605.81;5034816;28;45379;-78
2023/06/22 06:53:59;;;;;;;;;33.00;31.50;;;;;18.04;100.00;100613.72;5054115;28;45662;-77
2023/06/22 06:56:24;;;;;;;;;31.75;30.75;;;;;18.02;100.00;100610.28;5055613;28;46984;-73
2023/06/22 06:58:50;;;;;;;;;33.50;31.75;;;;;17.91;100.00;100593.22;5054084;28;45348;-72
2023/06/22 07:01:16;;;;;;;;;38.25;35.00;;;;;17.92;100.00;100596.75;5055107;28;45502;-72
2023/06/22 07:03:41;;;;;;;;;27.50;27.50;;;;;17.90;100.00;100596.84;5064514;28;45479;-74
2023/06/22 07:06:08;;;;;;;;;34.00;31.25;;;;;17.86;100.00;100608.66;5053891;28;47072;-74
2023/06/22 07:08:35;;;;;;;;;31.25;30.25;;;;;17.79;100.00;100610.06;5045393;28;45561;-76
2023/06/22 07:11:00;;;;;;;;;38.00;34.75;;;;;28.59;100.00;100608.22;5054142;28;45359;-75
2023/06/22 07:13:27;;;;;;;;;32.00;31.00;;;;;26.00;100.00;100615.91;5055818;28;45412;-71
2023/06/22 07:15:52;;;;;;;;;37.25;33.75;;;;;26.79;100.00;100622.88;5070726;28;47677;-71
2023/06/22 07:18:18;;;;;;;;;35.75;33.00;;;;;26.46;100.00;100595.81;5063435;27;45472;-75
2023/06/22 07:20:43;;;;;;;;;39.50;34.75;;;;;26.55;100.00;100605.66;5053940;28;56812;-74
2023/06/22 07:23:08;;;;;;;;;36.25;32.75;;;;;25.68;100.00;100606.66;5054842;28;45331;-74
2023/06/22 07:25:34;;;;;;;;;40.00;35.25;;;;;25.35;100.00;100593.81;5054676;28;52265;-76
2023/06/22 07:28:02;;;;;;;;;39.25;35.25;;;;;25.68;100.00;100595.88;5055174;28;45311;-74
2023/06/22 07:30:28;;;;;;;;;45.00;38.00;;;;;25.86;100.00;100587.69;5056333;28;45366;-74
2023/06/22 07:32:54;;;;;;;;;46.25;40.00;;;;;31.32;100.00;100585.88;5056569;28;45552;-72
2023/06/22 07:35:20;;;;;;;;;49.00;40.00;;;;;29.76;100.00;100581.78;5070714;28;48344;-72
2023/06/22 07:37:45;;;;;;;;;47.00;39.75;;;;;30.06;100.00;100579.03;5054247;28;45371;-74
2023/06/22 07:40:11;;;;;;;;;49.50;42.50;;;;;30.36;100.00;100584.38;5054746;28;45310;-73
2023/06/22 07:42:36;;;;;;;;;49.75;42.00;;;;;29.69;100.00;100588.97;5055013;28;45319;-71
2023/06/22 07:45:03;;;;;;;;;47.75;41.00;;;;;29.52;93.80;100588.34;5054143;28;46354;-73
2023/06/22 07:47:29;;;;;;;;;45.50;39.50;;;;;29.27;100.00;100585.84;5054179;28;45552;-73
2023/06/22 07:49:57;;;;;;;;;43.50;37.25;;;;;29.03;98.80;100590.47;5054959;28;45771;-73
2023/06/22 07:52:23;;;;;;;;;46.50;38.50;;;;;28.61;100.00;100617.00;5054856;28;45388;-73
2023/06/22 07:54:48;;;;;;;;;41.50;36.50;;;;;29.01;100.00;100574.41;5057178;28;45426;-72
2023/06/22 07:57:14;;;;;;;;;49.00;41.50;;;;;29.30;95.46;100596.31;5056428;28;45355;-72
2023/06/22 07:59:39;;;;;;;;;48.75;40.75;;;;;30.94;86.80;100586.22;5057530;28;47027;-70
2023/06/22 08:02:05;;;;;;;;;54.25;44.25;;;;;31.52;100.00;100587.88;5058134;28;45498;-72
2023/06/22 08:04:34;;;;;;;;;49.75;41.75;;;;;31.61;81.43;100589.38;5057585;28;46700;-71
2023/06/22 08:07:00;;;;;;;;;50.75;42.25;;;;;30.59;88.60;100595.09;5057809;28;45614;-72
2023/06/22 08:09:25;;;;;;;;;51.75;43.75;;;;;30.90;100.00;100598.50;5058170;28;45421;-75
2023/06/22 08:11:51;;;;;;;;;49.00;41.25;;;;;30.72;85.53;100596.25;5057636;28;45575;-76
2023/06/22 08:14:16;;;;;;;;;49.50;41.75;;;;;30.76;100.00;100597.53;5057180;28;46474;-73
2023/06/22 08:16:42;;;;;;;;;49.75;42.75;;;;;32.11;85.25;100598.41;5057341;28;45409;-74
2023/06/22 08:19:07;;;;;;;;;49.75;41.75;;;;;32.48;80.99;100599.81;5057743;28;45342;-73
2023/06/22 08:21:33;;;;;;;;;48.00;41.25;;;;;32.77;72.92;100608.63;5057450;28;45377;-73
2023/06/22 08:23:58;;;;;;;;;46.75;40.50;;;;;33.10;73.70;100609.72;5057610;28;45472;-74
2023/06/22 08:26:23;;;;;;;;;44.50;38.50;;;;;32.61;72.00;100601.72;5056873;28;56048;-74
2023/06/22 08:28:49;;;;;;;;;51.25;43.25;;;;;31.52;75.97;100609.63;5056937;28;45388;-75
2023/06/22 08:31:14;;;;;;;;;48.75;42.00;;;;;30.85;81.70;100604.50;5057485;28;45552;-74
2023/06/22 08:33:40;;;;;;;;;44.25;37.25;;;;;22.03;100.00;100612.56;5055772;28;47211;-76
2023/06/22 08:36:06;;;;;;;;;51.25;42.00;;;;;20.67;100.00;100600.81;5057234;28;45490;-72
2023/06/22 08:38:31;;;;;;;;;49.25;40.75;;;;;20.09;100.00;100604.59;5057490;28;45461;-71
2023/06/22 08:40:57;;;;;;;;;47.50;40.25;;;;;20.07;100.00;100603.88;5057589;28;45430;-71
2023/06/22 08:43:23;;;;;;;;;46.25;39.25;;;;;19.91;100.00;100608.75;5055630;28;45354;-71
2023/06/22 08:45:48;;;;;;;;;52.75;44.50;;;;;19.80;100.00;100609.56;5056958;28;45275;-74
2023/06/22 08:48:14;;;;;;;;;48.50;41.50;;;;;19.84;100.00;100601.19;5057349;28;45274;-75
2023/06/22 08:50:40;;;;;;;;;47.75;41.00;;;;;19.83;100.00;100615.50;5057166;28;45576;-73
2023/06/22 08:53:06;;;;;;;;;48.25;41.75;;;;;20.04;100.00;100621.94;5056732;28;45688;-71
2023/06/22 08:55:31;;;;;;;;;48.50;39.75;;;;;19.98;100.00;100624.16;5056991;28;45347;-72
2023/06/22 08:57:57;;;;;;;;;53.00;44.50;;;;;20.02;100.00;100621.22;5055775;28;45266;-71
2023/06/22 09:00:22;;;;;;;;;52.00;43.50;;;;;19.98;100.00;100628.66;5056915;28;45385;-73
2023/06/22 09:02:48;;;;;;;;;48.75;41.25;;;;;20.16;100.00;100613.00;5056921;28;45910;-73
2023/06/22 09:05:14;;;;;;;;;47.75;40.00;;;;;20.31;100.00;100634.09;5056033;28;45665;-75
2023/06/22 09:07:40;;;;;;;;;53.50;44.25;;;;;20.31;100.00;100631.41;5060045;28;45403;-73
2023/06/22 09:10:06;;;;;;;;;47.75;40.75;;;;;20.33;100.00;100626.81;5059471;28;45622;-74
2023/06/22 09:12:32;;;;;;;;;51.00;43.25;;;;;20.25;100.00;100628.28;5057296;28;46357;-73
2023/06/22 09:15:02;;;;;;;;;46.00;39.00;;;;;20.19;100.00;100630.56;5056789;28;45345;-74
2023/06/22 09:17:27;;;;;;;;;48.25;41.50;;;;;20.15;100.00;100627.31;5056853;28;45445;-74
2023/06/22 09:19:53;;;;;;;;;45.25;38.25;;;;;20.23;100.00;100634.69;5056673;28;45357;-72
2023/06/22 09:22:18;;;;;;;;;42.25;35.50;;;;;20.24;100.00;100644.41;5056868;28;45489;-73
2023/06/22 09:24:44;;;;;;;;;45.50;39.50;;;;;20.25;100.00;100632.75;5056904;28;45861;-75
2023/06/22 09:27:09;;;;;;;;;47.75;40.50;;;;;20.32;100.00;100646.47;5056951;28;45479;-74
2023/06/22 09:29:35;;;;;;;;;39.00;35.25;;;;;20.26;100.00;100635.31;5056514;28;45452;-74
2023/06/22 09:32:01;;;;;;;;;43.75;36.25;;;;;20.28;100.00;100641.38;5056481;28;45445;-75
2023/06/22 09:34:27;;;;;;;;;45.75;39.50;;;;;20.24;100.00;100636.38;5055841;28;45456;-74
2023/06/22 09:36:52;;;;;;;;;46.25;38.25;;;;;20.33;100.00;100640.16;5071855;27;45303;-73
2023/06/22 09:39:18;;;;;;;;;32.00;31.00;;;;;20.41;100.00;100635.88;5056468;28;45644;-73
2023/06/22 09:41:43;;;;;;;;;41.00;36.25;;;;;20.26;100.00;100640.66;5055972;28;45317;-75
2023/06/22 09:44:09;;;;;;;;;43.75;38.00;;;;;20.36;100.00;100637.25;5055661;28;45200;-74
2023/06/22 09:46:35;;;;;;;;;41.75;35.50;;;;;20.34;100.00;100633.84;5055032;28;45257;-74
2023/06/22 09:49:00;;;;;;;;;36.25;33.25;;;;;20.44;100.00;100651.66;5056293;28;45201;-74
2023/06/22 09:51:25;;;;;;;;;40.25;36.00;;;;;20.60;100.00;100657.59;5053648;28;62332;-75
2023/06/22 09:53:52;;;;;;;;;44.75;38.75;;;;;20.80;100.00;100659.50;5055832;28;45292;-75
2023/06/22 09:56:17;;;;;;;;;47.25;40.75;;;;;21.00;100.00;100665.00;5056219;28;45572;-74
2023/06/22 09:58:44;;;;;;;;;30.00;29.50;;;;;21.08;100.00;100664.38;5055742;28;45322;-75
2023/06/22 10:01:10;;;;;;;;;38.50;34.75;;;;;21.16;100.00;100667.25;5055882;28;45405;-73
2023/06/22 10:03:36;;;;;;;;;37.00;34.00;;;;;21.07;100.00;100647.47;5055911;28;45507;-76
2023/06/22 10:06:02;;;;;;;;;31.75;30.75;;;;;21.21;100.00;100664.22;5056110;28;45599;-75
2023/06/22 10:08:27;;;;;;;;;33.00;31.50;;;;;21.34;100.00;100664.88;5056117;28;45302;-77
2023/06/22 10:10:52;;;;;;;;;26.75;26.75;;;;;21.41;100.00;100667.88;5055460;28;45265;-75
2023/06/22 10:13:18;;;;;;;;;37.75;34.00;;;;;21.62;100.00;100673.22;5054132;28;45184;-74
2023/06/22 10:15:49;;;;;;;;;33.00;32.00;;;;;21.81;100.00;100666.31;5056677;28;45245;-74
2023/06/22 10:18:15;;;;;;;;;36.75;33.00;;;;;22.20;100.00;100676.34;5057726;28;45304;-74
2023/06/22 10:20:41;;;;;;;;;34.00;32.25;;;;;22.47;100.00;100665.06;5057174;28;45525;-74
2023/06/22 10:23:06;;;;;;;;;29.25;29.25;;;;;22.63;100.00;100661.00;5055989;28;45339;-75
2023/06/22 10:25:31;;;;;;;;;32.75;31.75;;;;;22.80;100.00;100668.34;5056480;28;45374;-75
2023/06/22 10:27:57;;;;;;;;;28.00;28.00;;;;;22.94;100.00;100676.97;5056921;28;45355;-76
2023/06/22 10:30:23;;;;;;;;;16.25;16.25;;;;;23.27;100.00;100681.09;5072473;27;46753;-74
2023/06/22 10:32:49;;;;;;;;;27.25;27.25;;;;;23.44;100.00;100682.22;5058198;28;45445;-76
2023/06/22 10:35:15;;;;;;;;;24.00;24.00;;;;;23.51;100.00;100681.63;5056921;28;45403;-75
2023/06/22 10:37:43;;;;;;;;;24.00;24.00;;;;;23.65;100.00;100691.91;5071667;27;45584;-77
2023/06/22 10:40:09;;;;;;;;;25.50;24.75;;;;;23.74;100.00;100693.72;5055803;28;46070;-76
2023/06/22 10:42:34;;;;;;;;;22.75;22.75;;;;;23.98;100.00;100697.75;5055424;28;45454;-77
2023/06/22 10:44:59;;;;;;;;;22.75;22.75;;;;;24.16;100.00;100695.19;5055071;28;45363;-76
2023/06/22 10:47:25;;;;;;;;;21.25;21.25;;;;;24.17;100.00;100685.28;5054970;28;45644;-78
2023/06/22 10:49:50;;;;;;;;;22.25;22.25;;;;;24.31;100.00;100690.16;5055144;28;46337;-77
2023/06/22 10:52:16;;;;;;;;;24.50;24.50;;;;;24.51;100.00;100696.28;5055329;28;45252;-77
2023/06/22 10:54:41;;;;;;;;;20.50;20.50;;;;;24.71;100.00;100690.78;5055302;28;45320;-75
2023/06/22 10:57:07;;;;;;;;;18.25;18.25;;;;;24.92;100.00;100687.00;5055811;28;45470;-77
2023/06/22 10:59:32;;;;;;;;;18.50;18.50;;;;;24.96;100.00;100701.84;5055224;28;45328;-76
2023/06/22 11:01:58;;;;;;;;;20.50;20.50;;;;;25.03;100.00;100718.19;5055519;28;45261;-78
2023/06/22 11:04:24;;;;;;;;;21.00;21.00;;;;;24.94;100.00;100731.56;5055657;28;45449;-76
2023/06/22 11:06:49;;;;;;;;;16.50;16.50;;;;;24.84;100.00;100743.38;5056187;28;45486;-75
2023/06/22 11:09:20;;;;;;;;;14.50;14.50;;;;;24.75;100.00;100723.63;5056057;28;46410;-77